createdAt,value
2023-04-27T00:01:41.343Z,12.32
2023-04-27T00:04:08.298Z,12.34
2023-04-27T00:06:35.121Z,12.22
2023-04-27T00:09:02.048Z,12.18
2023-04-27T00:11:28.682Z,12.01
2023-04-27T00:13:56.053Z,12.28
2023-04-27T00:16:22.800Z,12.24
2023-04-27T00:18:49.587Z,12.31
2023-04-27T00:21:16.361Z,12.50
2023-04-27T00:23:45.353Z,12.37
2023-04-27T00:26:12.045Z,12.38
2023-04-27T00:28:38.746Z,12.42
2023-04-27T00:31:05.503Z,12.23
2023-04-27T00:33:32.293Z,12.20
2023-04-27T00:36:02.549Z,12.15
2023-04-27T00:38:32.386Z,12.13
2023-04-27T00:41:06.857Z,12.14
2023-04-27T00:43:41.413Z,12.23
2023-04-27T00:46:08.910Z,12.29
2023-04-27T00:48:35.688Z,12.26
2023-04-27T00:51:02.542Z,12.14
2023-04-27T00:53:29.684Z,12.06
2023-04-27T00:55:56.380Z,12.07
2023-04-27T00:58:23.118Z,12.02
2023-04-27T01:00:49.968Z,12.16
2023-04-27T01:03:17.454Z,12.12
2023-04-27T01:05:44.621Z,12.09
2023-04-27T01:08:11.722Z,12.09
2023-04-27T01:10:38.764Z,12.09
2023-04-27T01:13:05.716Z,12.19
2023-04-27T01:15:32.364Z,12.05
2023-04-27T01:18:03.012Z,12.71
2023-04-27T01:20:32.614Z,13.19
2023-04-27T01:22:59.837Z,13.17
2023-04-27T01:25:26.872Z,13.00
2023-04-27T01:27:56.249Z,13.09
2023-04-27T01:30:26.208Z,12.64
2023-04-27T01:32:52.994Z,12.38
2023-04-27T01:35:19.839Z,12.01
2023-04-27T01:37:46.763Z,12.13
2023-04-27T01:40:13.739Z,12.15
2023-04-27T01:42:40.491Z,11.87
2023-04-27T01:45:07.801Z,11.70
2023-04-27T01:47:34.873Z,11.85
2023-04-27T01:50:04.508Z,11.71
2023-04-27T01:52:31.267Z,11.73
2023-04-27T01:54:57.944Z,11.77
2023-04-27T01:57:24.664Z,11.74
2023-04-27T01:59:52.825Z,11.68
2023-04-27T02:02:19.655Z,11.68
2023-04-27T02:04:46.413Z,11.68
2023-04-27T02:07:13.166Z,11.67
2023-04-27T02:09:39.862Z,11.79
2023-04-27T02:12:06.730Z,11.82
2023-04-27T02:14:36.101Z,11.85
2023-04-27T02:17:02.801Z,11.65
2023-04-27T02:19:29.655Z,11.68
2023-04-27T02:21:56.380Z,11.84
2023-04-27T02:24:23.058Z,11.98
2023-04-27T02:26:49.780Z,11.84
2023-04-27T02:29:19.576Z,11.98
2023-04-27T02:31:46.857Z,12.06
2023-04-27T02:34:13.608Z,12.07
2023-04-27T02:36:40.316Z,12.00
2023-04-27T02:39:07.561Z,11.91
2023-04-27T02:41:34.220Z,11.91
2023-04-27T02:44:09.286Z,11.71
2023-04-27T02:46:36.215Z,11.71
2023-04-27T02:49:03.096Z,11.88
2023-04-27T02:51:29.835Z,11.79
2023-04-27T02:53:56.929Z,11.69
2023-04-27T02:56:23.884Z,11.74
2023-04-27T02:58:52.795Z,11.61
2023-04-27T03:01:19.551Z,11.44
2023-04-27T03:03:55.040Z,11.43
2023-04-27T03:06:28.247Z,11.36
2023-04-27T03:08:58.808Z,11.48
2023-04-27T03:11:25.594Z,11.53
2023-04-27T03:13:52.322Z,11.52
2023-04-27T03:16:22.242Z,11.68
2023-04-27T03:18:48.939Z,11.72
2023-04-27T03:21:15.790Z,11.65
2023-04-27T03:23:42.894Z,11.54
2023-04-27T03:26:11.053Z,11.72
2023-04-27T03:28:38.455Z,11.84
2023-04-27T03:31:10.990Z,11.74
2023-04-27T03:33:38.360Z,11.72
2023-04-27T03:36:06.644Z,11.58
2023-04-27T03:38:33.790Z,11.54
2023-04-27T03:41:00.431Z,11.22
2023-04-27T03:43:27.378Z,11.27
2023-04-27T03:45:54.333Z,11.22
2023-04-27T03:48:21.204Z,11.41
2023-04-27T03:50:48.200Z,11.38
2023-04-27T03:53:15.328Z,11.35
2023-04-27T03:55:43.331Z,11.38
2023-04-27T03:58:10.948Z,11.15
2023-04-27T04:00:38.238Z,11.39
2023-04-27T04:03:06.924Z,11.30
2023-04-27T04:05:35.375Z,11.30
2023-04-27T04:08:05.048Z,11.37
2023-04-27T04:10:33.458Z,11.15
2023-04-27T04:13:00.146Z,11.40
2023-04-27T04:15:28.382Z,11.43
2023-04-27T04:18:03.277Z,11.30
2023-04-27T04:20:29.974Z,11.20
2023-04-27T04:22:56.792Z,11.03
2023-04-27T04:25:23.544Z,10.97
2023-04-27T04:27:53.246Z,11.08
2023-04-27T04:30:20.761Z,10.95
2023-04-27T04:32:49.392Z,10.81
2023-04-27T04:35:16.307Z,11.08
2023-04-27T04:37:44.411Z,11.16
2023-04-27T04:40:11.544Z,11.13
2023-04-27T04:42:38.352Z,11.02
2023-04-27T04:45:09.093Z,10.79
2023-04-27T04:47:36.072Z,10.84
2023-04-27T04:50:02.762Z,10.86
2023-04-27T04:52:31.125Z,10.84
2023-04-27T04:54:57.814Z,10.92
2023-04-27T04:57:24.547Z,11.00
2023-04-27T04:59:51.276Z,11.05
2023-04-27T05:02:20.864Z,10.96
2023-04-27T05:04:48.039Z,11.11
2023-04-27T05:07:16.084Z,11.15
2023-04-27T05:09:44.074Z,11.26
2023-04-27T05:12:13.842Z,11.27
2023-04-27T05:14:40.700Z,11.31
2023-04-27T05:17:07.499Z,11.48
2023-04-27T05:19:47.914Z,11.66
2023-04-27T05:22:22.663Z,11.84
2023-04-27T05:24:49.425Z,11.91
2023-04-27T05:27:19.920Z,12.01
2023-04-27T05:29:46.868Z,12.02
2023-04-27T05:32:13.576Z,12.22
2023-04-27T05:34:40.265Z,12.46
2023-04-27T05:37:07.185Z,12.67
2023-04-27T05:39:36.626Z,13.41
2023-04-27T05:42:03.581Z,13.30
2023-04-27T05:44:30.412Z,13.51
2023-04-27T05:47:04.868Z,13.31
2023-04-27T05:49:43.329Z,13.21
2023-04-27T05:52:12.604Z,13.44
2023-04-27T05:54:46.521Z,13.71
2023-04-27T05:57:13.277Z,13.86
2023-04-27T05:59:40.104Z,14.27
2023-04-27T06:02:07.138Z,14.33
2023-04-27T06:04:47.411Z,14.84
2023-04-27T06:07:16.387Z,15.04
2023-04-27T06:09:43.153Z,15.39
2023-04-27T06:12:11.600Z,15.72
2023-04-27T06:14:40.467Z,16.06
2023-04-27T06:17:07.231Z,16.28
2023-04-27T06:19:38.252Z,16.73
2023-04-27T06:22:04.968Z,16.85
2023-04-27T06:24:31.828Z,16.74
2023-04-27T06:27:00.944Z,16.63
2023-04-27T06:29:28.880Z,16.73
2023-04-27T06:31:55.851Z,17.09
2023-04-27T06:34:22.781Z,17.18
2023-04-27T06:36:49.551Z,17.30
2023-04-27T06:39:16.940Z,17.39
2023-04-27T06:41:45.024Z,17.02
2023-04-27T06:44:11.790Z,17.52
2023-04-27T06:46:38.475Z,17.77
2023-04-27T06:49:05.135Z,17.61
2023-04-27T06:51:31.837Z,17.59
2023-04-27T06:54:06.005Z,17.56
2023-04-27T06:56:32.692Z,17.54
2023-04-27T06:59:08.172Z,17.66
2023-04-27T07:01:34.951Z,17.91
2023-04-27T07:04:13.571Z,17.95
2023-04-27T07:06:47.798Z,17.70
2023-04-27T07:09:26.429Z,17.78
2023-04-27T07:11:55.913Z,17.86
2023-04-27T07:14:24.890Z,17.87
2023-04-27T07:16:51.567Z,18.09
2023-04-27T07:19:18.277Z,17.98
2023-04-27T07:21:47.588Z,18.09
2023-04-27T07:24:14.274Z,18.36
2023-04-27T07:26:42.675Z,18.41
2023-04-27T07:29:22.927Z,18.37
2023-04-27T07:31:54.010Z,18.35
2023-04-27T07:34:20.712Z,18.25
2023-04-27T07:36:47.617Z,18.13
2023-04-27T07:39:14.495Z,18.34
2023-04-27T07:41:41.304Z,18.40
2023-04-27T07:44:08.047Z,18.48
2023-04-27T07:46:34.770Z,18.45
2023-04-27T07:49:07.911Z,18.65
2023-04-27T07:51:44.103Z,18.46
2023-04-27T07:54:15.888Z,18.50
2023-04-27T07:56:43.445Z,18.73
2023-04-27T07:59:10.158Z,18.70
2023-04-27T08:01:36.957Z,18.76
2023-04-27T08:04:03.875Z,18.30
2023-04-27T08:06:32.508Z,17.98
2023-04-27T08:08:59.675Z,17.85
2023-04-27T08:11:27.045Z,17.93
2023-04-27T08:13:53.873Z,18.25
2023-04-27T08:16:25.654Z,18.54
2023-04-27T08:19:00.686Z,18.46
2023-04-27T08:21:27.716Z,18.35
2023-04-27T08:23:54.452Z,18.94
2023-04-27T08:26:21.101Z,18.74
2023-04-27T08:28:47.791Z,18.62
2023-04-27T08:31:14.509Z,18.65
2023-04-27T08:33:44.096Z,18.75
2023-04-27T08:36:12.149Z,18.78
2023-04-27T08:38:39.114Z,18.36
2023-04-27T08:41:20.276Z,18.59
2023-04-27T08:43:52.625Z,19.05
2023-04-27T08:46:24.872Z,18.98
2023-04-27T08:48:51.811Z,18.96
2023-04-27T08:51:18.635Z,19.05
2023-04-27T08:53:51.028Z,18.95
2023-04-27T08:56:27.670Z,18.92
2023-04-27T08:58:58.931Z,19.00
2023-04-27T09:01:28.004Z,19.01
2023-04-27T09:04:02.133Z,18.91
2023-04-27T09:06:39.107Z,19.10
2023-04-27T09:09:15.407Z,19.11
2023-04-27T09:11:42.327Z,19.25
2023-04-27T09:14:23.254Z,19.46
2023-04-27T09:17:00.129Z,19.53
2023-04-27T09:19:28.924Z,19.40
2023-04-27T09:22:13.894Z,19.56
2023-04-27T09:24:51.006Z,19.98
2023-04-27T09:27:21.562Z,19.81
2023-04-27T09:29:48.576Z,19.45
2023-04-27T09:32:22.067Z,20.00
2023-04-27T09:34:49.187Z,19.76
2023-04-27T09:37:19.368Z,19.93
2023-04-27T09:39:46.754Z,19.66
2023-04-27T09:42:14.785Z,19.69
2023-04-27T09:44:41.474Z,19.71
2023-04-27T09:47:09.464Z,19.95
2023-04-27T09:49:36.465Z,19.67
2023-04-27T09:52:11.988Z,19.97
2023-04-27T09:55:03.767Z,19.98
2023-04-27T09:57:54.106Z,20.09
2023-04-27T10:00:27.843Z,19.99
2023-04-27T10:03:19.124Z,20.01
2023-04-27T10:06:02.290Z,20.10
2023-04-27T10:08:37.299Z,19.88
2023-04-27T10:11:20.216Z,20.30
2023-04-27T10:13:57.892Z,20.15
2023-04-27T10:16:27.804Z,20.17
2023-04-27T10:18:57.760Z,20.15
2023-04-27T10:21:25.919Z,20.52
2023-04-27T10:23:52.957Z,20.18
2023-04-27T10:26:28.157Z,20.29
2023-04-27T10:29:09.054Z,20.14
2023-04-27T10:31:36.401Z,20.40
2023-04-27T10:34:13.937Z,20.49
2023-04-27T10:36:43.408Z,20.44
2023-04-27T10:39:48.550Z,20.78
2023-04-27T10:42:28.040Z,20.84
2023-04-27T10:44:59.232Z,20.73
2023-04-27T10:47:43.569Z,20.61
2023-04-27T10:50:13.146Z,21.14
2023-04-27T10:52:44.297Z,20.93
2023-04-27T10:55:18.808Z,20.95
2023-04-27T10:58:06.418Z,21.02
2023-04-27T11:00:37.929Z,21.02
2023-04-27T11:03:19.516Z,20.73
2023-04-27T11:05:48.021Z,21.16
2023-04-27T11:08:27.439Z,20.90
2023-04-27T11:10:54.844Z,21.10
2023-04-27T11:13:27.226Z,21.00
2023-04-27T11:15:59.054Z,20.99
2023-04-27T11:18:27.195Z,21.04
2023-04-27T11:21:05.897Z,21.36
2023-04-27T11:23:33.351Z,21.24
2023-04-27T11:26:11.991Z,21.00
2023-04-27T11:28:39.966Z,20.83
2023-04-27T11:31:07.317Z,20.96
2023-04-27T11:33:35.902Z,21.15
2023-04-27T11:36:23.170Z,21.15
2023-04-27T11:39:11.635Z,21.32
2023-04-27T11:41:53.985Z,21.41
2023-04-27T11:44:32.796Z,21.61
2023-04-27T11:47:02.991Z,21.54
2023-04-27T11:49:29.838Z,21.45
2023-04-27T11:51:57.154Z,21.49
2023-04-27T11:54:29.381Z,21.47
2023-04-27T11:57:05.708Z,21.15
2023-04-27T11:59:32.487Z,21.53
2023-04-27T12:02:01.421Z,21.50
2023-04-27T12:04:37.474Z,21.19
2023-04-27T12:07:15.048Z,21.19
2023-04-27T12:09:43.203Z,21.41
2023-04-27T12:12:12.730Z,21.20
2023-04-27T12:14:40.703Z,21.53
2023-04-27T12:17:07.444Z,21.41
2023-04-27T12:19:34.330Z,21.49
2023-04-27T12:22:03.251Z,21.34
2023-04-27T12:24:30.115Z,21.10
2023-04-27T12:26:57.008Z,21.28
2023-04-27T12:29:23.926Z,21.66
2023-04-27T12:31:54.216Z,21.40
2023-04-27T12:34:21.160Z,21.54
2023-04-27T12:36:50.689Z,21.48
2023-04-27T12:39:22.448Z,21.64
2023-04-27T12:41:50.081Z,21.42
2023-04-27T12:44:18.495Z,21.41
2023-04-27T12:46:46.443Z,21.52
2023-04-27T12:49:13.566Z,21.61
2023-04-27T12:51:42.891Z,21.61
2023-04-27T12:54:10.837Z,21.18
2023-04-27T12:56:40.640Z,21.19
2023-04-27T12:59:07.794Z,20.96
2023-04-27T13:01:40.894Z,21.20
2023-04-27T13:04:08.157Z,20.95
2023-04-27T13:06:35.137Z,21.35
2023-04-27T13:09:04.161Z,21.32
2023-04-27T13:11:35.005Z,21.41
2023-04-27T13:14:01.736Z,21.24
2023-04-27T13:16:28.494Z,21.39
2023-04-27T13:18:59.149Z,21.35
2023-04-27T13:21:25.855Z,21.21
2023-04-27T13:23:52.633Z,21.34
2023-04-27T13:26:22.336Z,21.64
2023-04-27T13:28:51.274Z,21.42
2023-04-27T13:31:20.605Z,21.53
2023-04-27T13:33:51.911Z,21.50
2023-04-27T13:36:21.402Z,21.36
2023-04-27T13:38:50.986Z,21.20
2023-04-27T13:41:21.090Z,20.91
2023-04-27T13:43:50.703Z,21.09
2023-04-27T13:46:24.397Z,21.29
2023-04-27T13:48:51.155Z,20.99
2023-04-27T13:51:18.131Z,20.80
2023-04-27T13:53:49.770Z,20.89
2023-04-27T13:56:16.461Z,20.85
2023-04-27T13:58:43.141Z,21.04
2023-04-27T14:01:19.089Z,21.01
2023-04-27T14:03:46.973Z,20.78
2023-04-27T14:06:13.765Z,20.99
2023-04-27T14:08:47.128Z,21.34
2023-04-27T14:11:21.976Z,21.19
2023-04-27T14:13:52.258Z,21.07
2023-04-27T14:16:19.653Z,21.03
2023-04-27T14:18:46.401Z,20.99
2023-04-27T14:21:13.224Z,20.64
2023-04-27T14:23:49.494Z,20.82
2023-04-27T14:26:19.097Z,20.92
2023-04-27T14:28:47.685Z,20.64
2023-04-27T14:31:16.871Z,21.00
2023-04-27T14:33:43.570Z,21.03
2023-04-27T14:36:10.373Z,21.01
2023-04-27T14:38:39.324Z,20.79
2023-04-27T14:41:06.014Z,20.71
2023-04-27T14:43:41.720Z,20.87
2023-04-27T14:48:47.185Z,20.83
2023-04-27T14:51:14.666Z,20.85
2023-04-27T14:53:41.782Z,20.77
2023-04-27T14:56:08.864Z,20.71
2023-04-27T14:58:42.154Z,20.66
2023-04-27T15:01:16.469Z,20.60
2023-04-27T15:03:44.273Z,20.60
2023-04-27T15:06:11.488Z,20.75
2023-04-27T15:08:41.931Z,20.58
2023-04-27T15:11:10.214Z,20.69
2023-04-27T15:13:39.787Z,20.39
2023-04-27T15:16:06.891Z,20.33
2023-04-27T15:18:33.753Z,20.59
2023-04-27T15:21:00.407Z,20.59
2023-04-27T15:23:28.383Z,20.74
2023-04-27T15:25:57.031Z,20.52
2023-04-27T15:28:34.556Z,20.55
2023-04-27T15:31:02.459Z,20.52
2023-04-27T15:33:29.174Z,20.28
2023-04-27T15:36:03.704Z,20.30
2023-04-27T15:38:30.466Z,20.56
2023-04-27T15:40:57.232Z,20.37
2023-04-27T15:43:24.108Z,20.34
2023-04-27T15:45:50.869Z,20.34
2023-04-27T15:48:17.597Z,20.40
2023-04-27T15:50:47.304Z,20.16
2023-04-27T15:53:14.236Z,20.24
2023-04-27T15:55:40.938Z,20.27
2023-04-27T15:58:07.835Z,20.36
2023-04-27T16:00:36.218Z,20.15
2023-04-27T16:03:03.095Z,20.28
2023-04-27T16:05:29.907Z,20.10
2023-04-27T16:07:57.072Z,20.36
2023-04-27T16:10:24.110Z,20.24
2023-04-27T16:12:50.852Z,20.05
2023-04-27T16:15:17.891Z,20.02
2023-04-27T16:17:55.342Z,20.10
2023-04-27T16:20:23.086Z,20.19
2023-04-27T16:22:52.362Z,19.98
2023-04-27T16:25:23.585Z,20.11
2023-04-27T16:27:50.772Z,19.97
2023-04-27T16:30:18.492Z,19.88
2023-04-27T16:32:45.187Z,20.04
2023-04-27T16:35:11.902Z,20.03
2023-04-27T16:37:40.318Z,20.05
2023-04-27T16:40:08.040Z,19.85
2023-04-27T16:42:34.781Z,20.03
2023-04-27T16:45:03.416Z,19.84
2023-04-27T16:47:32.020Z,19.87
2023-04-27T16:49:58.913Z,20.05
2023-04-27T16:52:26.098Z,19.81
2023-04-27T16:54:57.101Z,19.78
2023-04-27T16:57:23.738Z,19.78
2023-04-27T16:59:50.420Z,19.83
2023-04-27T17:02:24.397Z,19.83
2023-04-27T17:04:51.758Z,19.87
2023-04-27T17:07:18.726Z,19.73
2023-04-27T17:09:45.516Z,19.67
2023-04-27T17:12:17.255Z,19.62
2023-04-27T17:14:43.981Z,19.53
2023-04-27T17:17:11.281Z,19.48
2023-04-27T17:19:38.859Z,19.63
2023-04-27T17:22:05.700Z,19.45
2023-04-27T17:24:35.292Z,19.35
2023-04-27T17:27:02.132Z,19.50
2023-04-27T17:29:31.091Z,19.46
2023-04-27T17:31:57.921Z,19.43
2023-04-27T17:34:27.944Z,19.16
2023-04-27T17:37:00.268Z,19.26
2023-04-27T17:39:27.606Z,19.25
2023-04-27T17:41:56.648Z,19.17
2023-04-27T17:44:23.557Z,18.92
2023-04-27T17:47:06.925Z,18.71
2023-04-27T17:49:47.635Z,18.64
2023-04-27T17:52:32.560Z,18.88
2023-04-27T17:55:15.186Z,18.55
2023-04-27T17:57:58.266Z,18.41
2023-04-27T18:00:44.371Z,18.36
2023-04-27T18:03:26.955Z,18.38
2023-04-27T18:05:55.055Z,18.66
2023-04-27T18:08:21.991Z,18.42
2023-04-27T18:10:48.668Z,18.24
2023-04-27T18:13:15.392Z,18.12
2023-04-27T18:15:48.937Z,18.10
2023-04-27T18:18:25.363Z,17.99
2023-04-27T18:20:54.844Z,17.99
2023-04-27T18:23:22.123Z,17.98
2023-04-27T18:25:52.245Z,18.12
2023-04-27T18:28:21.388Z,17.92
2023-04-27T18:30:50.823Z,17.82
2023-04-27T18:33:23.511Z,17.69
2023-04-27T18:35:50.777Z,17.46
2023-04-27T18:38:17.500Z,17.67
2023-04-27T18:40:44.204Z,17.38
2023-04-27T18:43:12.725Z,17.34
2023-04-27T18:45:48.408Z,17.31
2023-04-27T18:48:28.115Z,17.42
2023-04-27T18:50:57.425Z,17.34
2023-04-27T18:53:24.324Z,17.25
2023-04-27T18:55:51.128Z,17.23
2023-04-27T18:58:18.007Z,17.15
2023-04-27T19:00:44.804Z,17.19
2023-04-27T19:03:16.939Z,17.22
2023-04-27T19:05:47.633Z,17.10
2023-04-27T19:08:15.489Z,16.96
2023-04-27T19:10:42.207Z,16.94
2023-04-27T19:13:10.435Z,16.93
2023-04-27T19:15:37.200Z,17.01
2023-04-27T19:18:10.531Z,16.95
2023-04-27T19:20:38.982Z,16.90
2023-04-27T19:23:05.805Z,16.91
2023-04-27T19:25:32.540Z,16.94
2023-04-27T19:28:01.438Z,16.99
2023-04-27T19:30:31.616Z,16.99
2023-04-27T19:32:58.974Z,16.92
2023-04-27T19:35:25.982Z,16.71
2023-04-27T19:37:53.139Z,16.74
2023-04-27T19:40:19.974Z,16.69
2023-04-27T19:42:56.040Z,16.57
2023-04-27T19:45:22.772Z,16.58
2023-04-27T19:47:54.006Z,16.40
2023-04-27T19:50:28.308Z,16.46
2023-04-27T19:53:06.880Z,16.19
2023-04-27T19:55:40.448Z,16.26
2023-04-27T19:58:07.198Z,16.19
2023-04-27T20:00:34.272Z,16.36
2023-04-27T20:03:09.374Z,16.06
2023-04-27T20:05:37.826Z,16.03
2023-04-27T20:08:07.535Z,16.03
2023-04-27T20:10:42.404Z,16.02
2023-04-27T20:13:15.987Z,16.00
2023-04-27T20:15:47.989Z,16.05
2023-04-27T20:18:20.391Z,16.05
2023-04-27T20:20:47.387Z,15.79
2023-04-27T20:23:14.074Z,15.86
2023-04-27T20:25:41.257Z,15.91
2023-04-27T20:28:07.930Z,15.79
2023-04-27T20:30:39.751Z,15.74
2023-04-27T20:33:08.224Z,15.70
2023-04-27T20:35:35.317Z,15.74
2023-04-27T20:38:06.934Z,15.82
2023-04-27T20:40:35.437Z,15.54
2023-04-27T20:43:02.181Z,15.83
2023-04-27T20:45:34.846Z,15.59
2023-04-27T20:48:01.634Z,15.59
2023-04-27T20:53:08.966Z,15.46
2023-04-27T20:55:35.667Z,15.83
2023-04-27T20:58:03.579Z,15.64
2023-04-27T21:00:30.419Z,15.41
2023-04-27T21:02:57.274Z,15.58
2023-04-27T21:05:24.084Z,15.34
2023-04-27T21:07:50.751Z,15.52
2023-04-27T21:10:17.453Z,15.39
2023-04-27T21:12:44.235Z,15.44
2023-04-27T21:15:11.028Z,14.98
2023-04-27T21:17:38.238Z,15.29
2023-04-27T21:20:11.066Z,14.97
2023-04-27T21:22:37.751Z,15.15
2023-04-27T21:25:04.612Z,14.92
2023-04-27T21:27:31.726Z,15.12
2023-04-27T21:29:59.006Z,15.21
2023-04-27T21:32:27.023Z,15.18
2023-04-27T21:35:05.386Z,14.79
2023-04-27T21:37:33.170Z,14.88
2023-04-27T21:40:00.154Z,15.18
2023-04-27T21:42:33.287Z,14.84
2023-04-27T21:45:03.054Z,14.86
2023-04-27T21:47:29.941Z,14.79
2023-04-27T21:49:56.636Z,14.70
2023-04-27T21:52:23.319Z,14.63
2023-04-27T21:54:50.255Z,14.63
2023-04-27T21:57:18.731Z,14.71
2023-04-27T21:59:52.251Z,14.73
2023-04-27T22:02:21.085Z,14.63
2023-04-27T22:04:50.197Z,14.68
2023-04-27T22:07:17.760Z,14.34
2023-04-27T22:09:50.721Z,14.69
2023-04-27T22:12:18.002Z,14.33
2023-04-27T22:14:50.799Z,14.36
2023-04-27T22:17:20.962Z,14.37
2023-04-27T22:19:47.728Z,14.36
2023-04-27T22:22:14.401Z,14.18
2023-04-27T22:24:41.115Z,14.27
2023-04-27T22:27:07.817Z,14.33
2023-04-27T22:29:34.767Z,14.12
2023-04-27T22:32:04.699Z,14.79
2023-04-27T22:34:31.786Z,14.39
2023-04-27T22:37:01.590Z,14.58
2023-04-27T22:39:33.136Z,14.08
2023-04-27T22:41:59.815Z,14.30
2023-04-27T22:44:26.622Z,14.51
2023-04-27T22:46:53.413Z,14.45
2023-04-27T22:49:20.204Z,14.23
2023-04-27T22:51:46.938Z,14.80
2023-04-27T22:54:14.889Z,15.33
2023-04-27T22:56:43.829Z,15.20
2023-04-27T22:59:10.763Z,14.79
2023-04-27T23:01:38.465Z,14.33
2023-04-27T23:04:06.323Z,14.40
2023-04-27T23:06:38.400Z,14.26
2023-04-27T23:09:06.246Z,14.13
2023-04-27T23:11:34.335Z,13.78
2023-04-27T23:14:01.319Z,13.86
2023-04-27T23:16:28.092Z,13.68
2023-04-27T23:18:57.490Z,13.97
2023-04-27T23:21:25.425Z,14.46
2023-04-27T23:23:52.081Z,14.69
2023-04-27T23:26:18.890Z,14.33
2023-04-27T23:28:46.910Z,14.08
2023-04-27T23:31:13.933Z,14.04
2023-04-27T23:33:48.019Z,13.83
2023-04-27T23:36:14.713Z,14.06
2023-04-27T23:38:41.648Z,13.94
2023-04-27T23:41:08.340Z,14.00
2023-04-27T23:43:35.058Z,13.79
2023-04-27T23:46:04.639Z,13.73
2023-04-27T23:48:40.440Z,13.76
2023-04-27T23:51:10.168Z,13.72
2023-04-27T23:53:40.830Z,13.66
2023-04-27T23:56:18.694Z,13.63
2023-04-27T23:58:45.818Z,13.72
